sensor_id;sensor_type;location;lat;lon;timestamp;P1;durP1;ratioP1;P2;durP2;ratioP2
1296;SDS011;641;48.492;9.184;2023-01-10T00:00:38;7.13;;;0.90;;
1296;SDS011;641;48.492;9.184;2023-01-10T00:03:05;7.43;;;1.23;;
1296;SDS011;641;48.492;9.184;2023-01-10T00:05:36;6.90;;;1.27;;
1296;SDS011;641;48.492;9.184;2023-01-10T00:08:03;7.93;;;1.23;;
1296;SDS011;641;48.492;9.184;2023-01-10T00:10:30;5.80;;;1.03;;
1296;SDS011;641;48.492;9.184;2023-01-10T00:12:57;5.87;;;1.10;;
1296;SDS011;641;48.492;9.184;2023-01-10T00:15:41;6.70;;;1.33;;
1296;SDS011;641;48.492;9.184;2023-01-10T00:18:07;5.77;;;0.97;;
1296;SDS011;641;48.492;9.184;2023-01-10T00:20:33;6.23;;;1.00;;
1296;SDS011;641;48.492;9.184;2023-01-10T00:22:59;8.73;;;1.23;;
1296;SDS011;641;48.492;9.184;2023-01-10T00:25:24;5.90;;;0.80;;
1296;SDS011;641;48.492;9.184;2023-01-10T00:27:54;6.07;;;0.80;;
1296;SDS011;641;48.492;9.184;2023-01-10T00:30:46;5.60;;;1.00;;
1296;SDS011;641;48.492;9.184;2023-01-10T00:33:25;7.70;;;1.20;;
1296;SDS011;641;48.492;9.184;2023-01-10T00:35:51;5.50;;;0.80;;
1296;SDS011;641;48.492;9.184;2023-01-10T00:38:17;6.67;;;0.80;;
1296;SDS011;641;48.492;9.184;2023-01-10T00:40:43;5.17;;;0.63;;
1296;SDS011;641;48.492;9.184;2023-01-10T00:43:10;5.67;;;0.70;;
1296;SDS011;641;48.492;9.184;2023-01-10T00:45:54;6.27;;;0.70;;
1296;SDS011;641;48.492;9.184;2023-01-10T00:48:21;6.87;;;0.90;;
1296;SDS011;641;48.492;9.184;2023-01-10T00:50:47;5.03;;;0.67;;
1296;SDS011;641;48.492;9.184;2023-01-10T00:53:13;5.00;;;0.60;;
1296;SDS011;641;48.492;9.184;2023-01-10T00:55:38;5.70;;;0.80;;
1296;SDS011;641;48.492;9.184;2023-01-10T00:58:04;5.87;;;0.57;;
1296;SDS011;641;48.492;9.184;2023-01-10T01:00:30;5.50;;;0.50;;
1296;SDS011;641;48.492;9.184;2023-01-10T01:02:56;6.17;;;0.50;;
1296;SDS011;641;48.492;9.184;2023-01-10T01:05:22;5.07;;;0.63;;
1296;SDS011;641;48.492;9.184;2023-01-10T01:07:48;5.00;;;0.63;;
1296;SDS011;641;48.492;9.184;2023-01-10T01:10:14;5.10;;;0.50;;
1296;SDS011;641;48.492;9.184;2023-01-10T01:12:53;5.47;;;0.60;;
1296;SDS011;641;48.492;9.184;2023-01-10T01:15:19;7.40;;;0.87;;
1296;SDS011;641;48.492;9.184;2023-01-10T01:17:45;5.50;;;0.70;;
1296;SDS011;641;48.492;9.184;2023-01-10T01:20:11;5.40;;;0.60;;
1296;SDS011;641;48.492;9.184;2023-01-10T01:22:37;4.97;;;0.60;;
1296;SDS011;641;48.492;9.184;2023-01-10T01:25:04;5.20;;;0.70;;
1296;SDS011;641;48.492;9.184;2023-01-10T01:27:30;5.20;;;0.77;;
1296;SDS011;641;48.492;9.184;2023-01-10T01:29:56;5.37;;;0.50;;
1296;SDS011;641;48.492;9.184;2023-01-10T01:32:22;5.10;;;0.60;;
1296;SDS011;641;48.492;9.184;2023-01-10T01:34:48;6.50;;;1.00;;
1296;SDS011;641;48.492;9.184;2023-01-10T01:37:13;7.10;;;0.73;;
1296;SDS011;641;48.492;9.184;2023-01-10T01:39:39;5.10;;;0.60;;
1296;SDS011;641;48.492;9.184;2023-01-10T01:42:05;5.50;;;0.60;;
1296;SDS011;641;48.492;9.184;2023-01-10T01:44:44;5.00;;;0.60;;
1296;SDS011;641;48.492;9.184;2023-01-10T01:47:22;5.60;;;0.60;;
1296;SDS011;641;48.492;9.184;2023-01-10T01:49:50;5.70;;;1.10;;
1296;SDS011;641;48.492;9.184;2023-01-10T01:52:17;6.80;;;0.83;;
1296;SDS011;641;48.492;9.184;2023-01-10T01:54:48;5.60;;;0.90;;
1296;SDS011;641;48.492;9.184;2023-01-10T01:57:16;5.10;;;0.60;;
1296;SDS011;641;48.492;9.184;2023-01-10T01:59:45;5.60;;;0.90;;
1296;SDS011;641;48.492;9.184;2023-01-10T02:02:15;5.80;;;0.80;;
1296;SDS011;641;48.492;9.184;2023-01-10T02:05:09;5.00;;;0.57;;
1296;SDS011;641;48.492;9.184;2023-01-10T02:07:37;4.80;;;0.40;;
1296;SDS011;641;48.492;9.184;2023-01-10T02:10:08;5.10;;;0.60;;
1296;SDS011;641;48.492;9.184;2023-01-10T02:12:39;4.97;;;0.67;;
1296;SDS011;641;48.492;9.184;2023-01-10T02:15:06;5.57;;;0.90;;
1296;SDS011;641;48.492;9.184;2023-01-10T02:17:33;5.17;;;0.70;;
1296;SDS011;641;48.492;9.184;2023-01-10T02:42:18;5.60;;;0.80;;
1296;SDS011;641;48.492;9.184;2023-01-10T02:44:55;5.00;;;0.60;;
1296;SDS011;641;48.492;9.184;2023-01-10T02:47:35;5.73;;;0.80;;
1296;SDS011;641;48.492;9.184;2023-01-10T02:52:52;5.90;;;0.70;;
1296;SDS011;641;48.492;9.184;2023-01-10T02:55:19;7.33;;;1.20;;
1296;SDS011;641;48.492;9.184;2023-01-10T02:57:52;5.10;;;0.60;;
1296;SDS011;641;48.492;9.184;2023-01-10T03:00:34;5.87;;;0.97;;
1296;SDS011;641;48.492;9.184;2023-01-10T03:03:27;5.07;;;0.47;;
1296;SDS011;641;48.492;9.184;2023-01-10T03:11:52;6.33;;;0.60;;
1296;SDS011;641;48.492;9.184;2023-01-10T03:14:27;4.90;;;0.50;;
1296;SDS011;641;48.492;9.184;2023-01-10T03:16:57;6.30;;;0.60;;
1296;SDS011;641;48.492;9.184;2023-01-10T03:19:28;5.00;;;0.40;;
1296;SDS011;641;48.492;9.184;2023-01-10T03:21:59;4.73;;;0.40;;
1296;SDS011;641;48.492;9.184;2023-01-10T03:24:29;4.80;;;0.40;;
1296;SDS011;641;48.492;9.184;2023-01-10T03:32:46;4.90;;;0.40;;
1296;SDS011;641;48.492;9.184;2023-01-10T03:35:11;4.83;;;0.40;;
1296;SDS011;641;48.492;9.184;2023-01-10T03:37:43;5.40;;;0.40;;
1296;SDS011;641;48.492;9.184;2023-01-10T03:41:02;4.90;;;0.40;;
1296;SDS011;641;48.492;9.184;2023-01-10T03:43:17;4.70;;;0.30;;
1296;SDS011;641;48.492;9.184;2023-01-10T03:46:09;5.93;;;0.40;;
1296;SDS011;641;48.492;9.184;2023-01-10T03:48:40;4.90;;;0.50;;
1296;SDS011;641;48.492;9.184;2023-01-10T03:51:08;4.77;;;0.40;;
1296;SDS011;641;48.492;9.184;2023-01-10T03:53:36;5.03;;;0.40;;
1296;SDS011;641;48.492;9.184;2023-01-10T03:56:03;4.80;;;0.40;;
1296;SDS011;641;48.492;9.184;2023-01-10T03:58:29;5.30;;;0.50;;
1296;SDS011;641;48.492;9.184;2023-01-10T04:00:54;4.70;;;0.30;;
1296;SDS011;641;48.492;9.184;2023-01-10T04:03:20;4.87;;;0.40;;
1296;SDS011;641;48.492;9.184;2023-01-10T04:05:46;4.90;;;0.47;;
1296;SDS011;641;48.492;9.184;2023-01-10T04:08:12;4.77;;;0.30;;
1296;SDS011;641;48.492;9.184;2023-01-10T04:10:38;4.80;;;0.40;;
1296;SDS011;641;48.492;9.184;2023-01-10T04:13:04;4.73;;;0.30;;
1296;SDS011;641;48.492;9.184;2023-01-10T04:15:30;5.10;;;0.50;;
1296;SDS011;641;48.492;9.184;2023-01-10T04:17:55;4.80;;;0.30;;
1296;SDS011;641;48.492;9.184;2023-01-10T04:20:21;4.77;;;0.40;;
1296;SDS011;641;48.492;9.184;2023-01-10T04:22:50;9.13;;;0.60;;
1296;SDS011;641;48.492;9.184;2023-01-10T04:25:16;5.10;;;0.40;;
1296;SDS011;641;48.492;9.184;2023-01-10T04:27:42;6.57;;;0.50;;
1296;SDS011;641;48.492;9.184;2023-01-10T04:30:07;4.80;;;0.40;;
1296;SDS011;641;48.492;9.184;2023-01-10T04:32:33;5.40;;;0.60;;
1296;SDS011;641;48.492;9.184;2023-01-10T04:34:59;4.97;;;0.50;;
1296;SDS011;641;48.492;9.184;2023-01-10T04:37:25;5.00;;;0.70;;
1296;SDS011;641;48.492;9.184;2023-01-10T04:39:50;5.20;;;0.50;;
1296;SDS011;641;48.492;9.184;2023-01-10T04:42:16;5.97;;;0.60;;
1296;SDS011;641;48.492;9.184;2023-01-10T04:44:42;5.00;;;0.60;;
1296;SDS011;641;48.492;9.184;2023-01-10T04:47:08;5.10;;;0.50;;
1296;SDS011;641;48.492;9.184;2023-01-10T04:49:34;6.70;;;0.70;;
1296;SDS011;641;48.492;9.184;2023-01-10T04:52:00;4.90;;;0.50;;
1296;SDS011;641;48.492;9.184;2023-01-10T04:54:26;5.10;;;0.60;;
1296;SDS011;641;48.492;9.184;2023-01-10T04:56:52;5.37;;;0.70;;
1296;SDS011;641;48.492;9.184;2023-01-10T04:59:18;6.60;;;0.90;;
1296;SDS011;641;48.492;9.184;2023-01-10T05:01:44;5.03;;;0.70;;
1296;SDS011;641;48.492;9.184;2023-01-10T05:04:10;6.83;;;1.00;;
1296;SDS011;641;48.492;9.184;2023-01-10T05:06:36;7.00;;;1.03;;
1296;SDS011;641;48.492;9.184;2023-01-10T05:09:04;5.43;;;0.80;;
1296;SDS011;641;48.492;9.184;2023-01-10T05:11:30;9.73;;;1.37;;
1296;SDS011;641;48.492;9.184;2023-01-10T05:13:56;10.17;;;1.30;;
1296;SDS011;641;48.492;9.184;2023-01-10T05:16:22;7.37;;;0.90;;
1296;SDS011;641;48.492;9.184;2023-01-10T05:18:49;5.63;;;0.77;;
1296;SDS011;641;48.492;9.184;2023-01-10T05:21:15;7.80;;;2.10;;
1296;SDS011;641;48.492;9.184;2023-01-10T05:23:41;7.50;;;1.17;;
1296;SDS011;641;48.492;9.184;2023-01-10T05:26:11;6.80;;;1.20;;
1296;SDS011;641;48.492;9.184;2023-01-10T05:28:38;7.03;;;1.63;;
1296;SDS011;641;48.492;9.184;2023-01-10T05:31:05;8.23;;;0.90;;
1296;SDS011;641;48.492;9.184;2023-01-10T05:33:31;5.63;;;1.20;;
1296;SDS011;641;48.492;9.184;2023-01-10T05:35:59;9.93;;;1.37;;
1296;SDS011;641;48.492;9.184;2023-01-10T05:38:25;6.07;;;1.27;;
1296;SDS011;641;48.492;9.184;2023-01-10T05:40:55;8.40;;;1.33;;
1296;SDS011;641;48.492;9.184;2023-01-10T05:43:21;5.60;;;1.03;;
1296;SDS011;641;48.492;9.184;2023-01-10T05:45:47;7.47;;;1.40;;
1296;SDS011;641;48.492;9.184;2023-01-10T05:48:13;15.87;;;1.73;;
1296;SDS011;641;48.492;9.184;2023-01-10T05:50:45;7.43;;;1.43;;
1296;SDS011;641;48.492;9.184;2023-01-10T05:53:17;6.53;;;1.50;;
1296;SDS011;641;48.492;9.184;2023-01-10T05:55:43;11.57;;;1.53;;
1296;SDS011;641;48.492;9.184;2023-01-10T05:58:09;7.60;;;1.50;;
1296;SDS011;641;48.492;9.184;2023-01-10T06:00:35;8.03;;;2.00;;
1296;SDS011;641;48.492;9.184;2023-01-10T06:03:03;13.60;;;2.20;;
1296;SDS011;641;48.492;9.184;2023-01-10T06:05:29;8.60;;;1.70;;
1296;SDS011;641;48.492;9.184;2023-01-10T06:07:55;7.80;;;1.80;;
1296;SDS011;641;48.492;9.184;2023-01-10T06:10:21;11.73;;;1.70;;
1296;SDS011;641;48.492;9.184;2023-01-10T06:12:47;10.63;;;1.63;;
1296;SDS011;641;48.492;9.184;2023-01-10T06:15:13;11.40;;;2.03;;
1296;SDS011;641;48.492;9.184;2023-01-10T06:17:40;8.30;;;1.60;;
1296;SDS011;641;48.492;9.184;2023-01-10T06:20:08;12.13;;;1.70;;
1296;SDS011;641;48.492;9.184;2023-01-10T06:22:34;8.90;;;2.17;;
1296;SDS011;641;48.492;9.184;2023-01-10T06:25:00;7.80;;;1.53;;
1296;SDS011;641;48.492;9.184;2023-01-10T06:27:26;11.30;;;1.90;;
1296;SDS011;641;48.492;9.184;2023-01-10T06:29:52;10.40;;;2.57;;
1296;SDS011;641;48.492;9.184;2023-01-10T06:32:18;14.70;;;1.77;;
1296;SDS011;641;48.492;9.184;2023-01-10T06:34:44;10.83;;;1.87;;
1296;SDS011;641;48.492;9.184;2023-01-10T06:37:10;19.27;;;2.13;;
1296;SDS011;641;48.492;9.184;2023-01-10T06:39:36;11.07;;;2.00;;
1296;SDS011;641;48.492;9.184;2023-01-10T06:42:03;10.67;;;1.80;;
1296;SDS011;641;48.492;9.184;2023-01-10T06:44:29;11.50;;;1.93;;
1296;SDS011;641;48.492;9.184;2023-01-10T06:46:55;9.47;;;1.90;;
1296;SDS011;641;48.492;9.184;2023-01-10T06:49:21;8.33;;;1.50;;
1296;SDS011;641;48.492;9.184;2023-01-10T06:51:47;6.63;;;1.40;;
1296;SDS011;641;48.492;9.184;2023-01-10T06:54:13;13.50;;;1.97;;
1296;SDS011;641;48.492;9.184;2023-01-10T06:56:39;10.40;;;1.87;;
1296;SDS011;641;48.492;9.184;2023-01-10T06:59:05;9.07;;;1.50;;
1296;SDS011;641;48.492;9.184;2023-01-10T07:01:31;7.47;;;1.50;;
1296;SDS011;641;48.492;9.184;2023-01-10T07:03:57;10.73;;;2.20;;
1296;SDS011;641;48.492;9.184;2023-01-10T07:06:23;11.00;;;2.40;;
1296;SDS011;641;48.492;9.184;2023-01-10T07:08:49;12.10;;;2.27;;
1296;SDS011;641;48.492;9.184;2023-01-10T07:11:15;11.23;;;1.83;;
1296;SDS011;641;48.492;9.184;2023-01-10T07:13:41;9.27;;;2.23;;
1296;SDS011;641;48.492;9.184;2023-01-10T07:16:09;7.13;;;1.67;;
1296;SDS011;641;48.492;9.184;2023-01-10T07:18:35;7.30;;;2.13;;
1296;SDS011;641;48.492;9.184;2023-01-10T07:21:01;10.97;;;2.23;;
1296;SDS011;641;48.492;9.184;2023-01-10T07:23:27;9.33;;;2.13;;
1296;SDS011;641;48.492;9.184;2023-01-10T07:25:55;11.60;;;1.93;;
1296;SDS011;641;48.492;9.184;2023-01-10T07:28:21;8.10;;;1.77;;
1296;SDS011;641;48.492;9.184;2023-01-10T07:30:47;13.50;;;2.20;;
1296;SDS011;641;48.492;9.184;2023-01-10T07:33:13;9.77;;;1.70;;
1296;SDS011;641;48.492;9.184;2023-01-10T07:35:39;9.73;;;1.60;;
1296;SDS011;641;48.492;9.184;2023-01-10T07:38:05;11.00;;;2.27;;
1296;SDS011;641;48.492;9.184;2023-01-10T07:40:33;11.80;;;1.60;;
1296;SDS011;641;48.492;9.184;2023-01-10T07:42:59;12.27;;;1.83;;
1296;SDS011;641;48.492;9.184;2023-01-10T07:45:25;9.27;;;1.53;;
1296;SDS011;641;48.492;9.184;2023-01-10T07:47:55;12.80;;;1.63;;
1296;SDS011;641;48.492;9.184;2023-01-10T07:50:21;8.43;;;1.63;;
1296;SDS011;641;48.492;9.184;2023-01-10T07:52:47;12.73;;;2.17;;
1296;SDS011;641;48.492;9.184;2023-01-10T07:55:13;9.33;;;1.90;;
1296;SDS011;641;48.492;9.184;2023-01-10T07:57:39;8.87;;;1.87;;
1296;SDS011;641;48.492;9.184;2023-01-10T08:00:05;9.07;;;1.67;;
1296;SDS011;641;48.492;9.184;2023-01-10T08:02:31;12.50;;;1.90;;
1296;SDS011;641;48.492;9.184;2023-01-10T08:04:57;9.90;;;1.43;;
1296;SDS011;641;48.492;9.184;2023-01-10T08:07:23;9.63;;;2.07;;
1296;SDS011;641;48.492;9.184;2023-01-10T08:09:49;8.93;;;1.57;;
1296;SDS011;641;48.492;9.184;2023-01-10T08:12:15;7.90;;;2.10;;
1296;SDS011;641;48.492;9.184;2023-01-10T08:14:41;8.30;;;1.40;;
1296;SDS011;641;48.492;9.184;2023-01-10T08:17:07;8.20;;;1.30;;
1296;SDS011;641;48.492;9.184;2023-01-10T08:19:34;11.67;;;1.50;;
1296;SDS011;641;48.492;9.184;2023-01-10T08:22:00;8.13;;;1.50;;
1296;SDS011;641;48.492;9.184;2023-01-10T08:24:27;13.30;;;1.60;;
1296;SDS011;641;48.492;9.184;2023-01-10T08:26:53;12.30;;;1.53;;
1296;SDS011;641;48.492;9.184;2023-01-10T08:29:19;14.77;;;1.60;;
1296;SDS011;641;48.492;9.184;2023-01-10T08:31:45;7.30;;;1.33;;
1296;SDS011;641;48.492;9.184;2023-01-10T08:34:11;7.80;;;1.30;;
1296;SDS011;641;48.492;9.184;2023-01-10T08:36:38;13.27;;;1.40;;
1296;SDS011;641;48.492;9.184;2023-01-10T08:39:04;10.00;;;1.40;;
1296;SDS011;641;48.492;9.184;2023-01-10T08:41:29;7.03;;;1.33;;
1296;SDS011;641;48.492;9.184;2023-01-10T08:43:55;8.93;;;2.10;;
1296;SDS011;641;48.492;9.184;2023-01-10T08:46:21;9.93;;;1.50;;
1296;SDS011;641;48.492;9.184;2023-01-10T08:48:47;6.47;;;1.20;;
1296;SDS011;641;48.492;9.184;2023-01-10T08:51:14;10.63;;;1.33;;
1296;SDS011;641;48.492;9.184;2023-01-10T08:53:40;12.30;;;2.00;;
1296;SDS011;641;48.492;9.184;2023-01-10T08:56:06;7.70;;;1.70;;
1296;SDS011;641;48.492;9.184;2023-01-10T08:58:33;14.60;;;1.53;;
1296;SDS011;641;48.492;9.184;2023-01-10T09:01:02;15.10;;;2.40;;
1296;SDS011;641;48.492;9.184;2023-01-10T09:03:28;17.00;;;1.87;;
1296;SDS011;641;48.492;9.184;2023-01-10T09:05:54;9.60;;;1.67;;
1296;SDS011;641;48.492;9.184;2023-01-10T09:08:20;8.43;;;1.30;;
1296;SDS011;641;48.492;9.184;2023-01-10T09:10:46;5.70;;;0.93;;
1296;SDS011;641;48.492;9.184;2023-01-10T09:13:12;9.80;;;1.93;;
1296;SDS011;641;48.492;9.184;2023-01-10T09:15:38;8.17;;;1.13;;
1296;SDS011;641;48.492;9.184;2023-01-10T09:18:05;11.57;;;1.67;;
1296;SDS011;641;48.492;9.184;2023-01-10T09:20:32;11.77;;;1.73;;
1296;SDS011;641;48.492;9.184;2023-01-10T09:23:01;8.07;;;1.43;;
1296;SDS011;641;48.492;9.184;2023-01-10T09:25:29;15.60;;;2.03;;
1296;SDS011;641;48.492;9.184;2023-01-10T09:27:58;5.90;;;1.33;;
1296;SDS011;641;48.492;9.184;2023-01-10T09:30:25;9.57;;;2.13;;
1296;SDS011;641;48.492;9.184;2023-01-10T09:32:51;9.17;;;1.50;;
1296;SDS011;641;48.492;9.184;2023-01-10T09:35:17;15.13;;;1.73;;
1296;SDS011;641;48.492;9.184;2023-01-10T09:37:43;6.67;;;1.20;;
1296;SDS011;641;48.492;9.184;2023-01-10T09:40:12;8.87;;;1.50;;
1296;SDS011;641;48.492;9.184;2023-01-10T09:42:47;7.10;;;1.47;;
1296;SDS011;641;48.492;9.184;2023-01-10T09:45:16;14.23;;;1.57;;
1296;SDS011;641;48.492;9.184;2023-01-10T09:47:51;9.80;;;2.70;;
1296;SDS011;641;48.492;9.184;2023-01-10T09:52:49;10.00;;;1.80;;
1296;SDS011;641;48.492;9.184;2023-01-10T09:57:50;9.33;;;1.50;;
1296;SDS011;641;48.492;9.184;2023-01-10T10:00:21;8.50;;;1.40;;
1296;SDS011;641;48.492;9.184;2023-01-10T10:02:48;8.87;;;1.40;;
1296;SDS011;641;48.492;9.184;2023-01-10T10:05:23;7.90;;;1.70;;
1296;SDS011;641;48.492;9.184;2023-01-10T10:08:00;8.07;;;1.40;;
1296;SDS011;641;48.492;9.184;2023-01-10T10:10:31;9.10;;;1.97;;
1296;SDS011;641;48.492;9.184;2023-01-10T10:13:03;8.57;;;2.23;;
1296;SDS011;641;48.492;9.184;2023-01-10T10:15:38;6.70;;;1.20;;
1296;SDS011;641;48.492;9.184;2023-01-10T10:18:13;6.87;;;2.13;;
1296;SDS011;641;48.492;9.184;2023-01-10T10:20:45;8.00;;;1.50;;
1296;SDS011;641;48.492;9.184;2023-01-10T10:25:50;7.93;;;1.57;;
1296;SDS011;641;48.492;9.184;2023-01-10T10:30:48;8.50;;;2.70;;
1296;SDS011;641;48.492;9.184;2023-01-10T10:35:54;12.73;;;2.40;;
1296;SDS011;641;48.492;9.184;2023-01-10T10:38:24;11.13;;;1.60;;
1296;SDS011;641;48.492;9.184;2023-01-10T10:40:54;10.93;;;1.77;;
1296;SDS011;641;48.492;9.184;2023-01-10T10:43:22;9.40;;;1.70;;
1296;SDS011;641;48.492;9.184;2023-01-10T10:45:57;8.27;;;1.93;;
1296;SDS011;641;48.492;9.184;2023-01-10T10:48:29;10.40;;;1.60;;
1296;SDS011;641;48.492;9.184;2023-01-10T10:51:15;7.13;;;1.37;;
1296;SDS011;641;48.492;9.184;2023-01-10T10:53:43;12.47;;;2.00;;
1296;SDS011;641;48.492;9.184;2023-01-10T10:56:10;8.40;;;1.43;;
1296;SDS011;641;48.492;9.184;2023-01-10T10:58:39;7.50;;;1.50;;
1296;SDS011;641;48.492;9.184;2023-01-10T11:01:10;7.47;;;1.67;;
1296;SDS011;641;48.492;9.184;2023-01-10T11:06:05;10.47;;;1.40;;
1296;SDS011;641;48.492;9.184;2023-01-10T11:08:31;8.40;;;1.33;;
1296;SDS011;641;48.492;9.184;2023-01-10T11:11:01;11.27;;;1.50;;
1296;SDS011;641;48.492;9.184;2023-01-10T11:15:54;8.53;;;1.80;;
1296;SDS011;641;48.492;9.184;2023-01-10T11:18:24;9.00;;;1.67;;
1296;SDS011;641;48.492;9.184;2023-01-10T11:20:55;9.83;;;1.20;;
1296;SDS011;641;48.492;9.184;2023-01-10T11:23:23;8.10;;;1.00;;
1296;SDS011;641;48.492;9.184;2023-01-10T11:25:50;7.47;;;1.40;;
1296;SDS011;641;48.492;9.184;2023-01-10T11:28:16;11.40;;;2.13;;
1296;SDS011;641;48.492;9.184;2023-01-10T11:30:47;6.47;;;0.90;;
1296;SDS011;641;48.492;9.184;2023-01-10T11:33:30;8.40;;;1.30;;
1296;SDS011;641;48.492;9.184;2023-01-10T11:36:03;6.83;;;1.07;;
1296;SDS011;641;48.492;9.184;2023-01-10T11:38:30;8.30;;;1.97;;
1296;SDS011;641;48.492;9.184;2023-01-10T11:41:04;8.57;;;1.23;;
1296;SDS011;641;48.492;9.184;2023-01-10T11:43:37;8.23;;;1.37;;
1296;SDS011;641;48.492;9.184;2023-01-10T11:46:19;6.53;;;1.00;;
1296;SDS011;641;48.492;9.184;2023-01-10T11:51:28;8.60;;;1.13;;
1296;SDS011;641;48.492;9.184;2023-01-10T11:56:40;11.03;;;1.27;;
1296;SDS011;641;48.492;9.184;2023-01-10T11:59:13;6.20;;;1.20;;
1296;SDS011;641;48.492;9.184;2023-01-10T12:01:54;8.77;;;1.10;;
1296;SDS011;641;48.492;9.184;2023-01-10T12:04:21;11.13;;;1.57;;
1296;SDS011;641;48.492;9.184;2023-01-10T12:06:48;6.80;;;0.80;;
1296;SDS011;641;48.492;9.184;2023-01-10T12:09:30;8.00;;;1.20;;
1296;SDS011;641;48.492;9.184;2023-01-10T12:12:01;8.37;;;1.17;;
1296;SDS011;641;48.492;9.184;2023-01-10T12:14:27;10.60;;;1.10;;
1296;SDS011;641;48.492;9.184;2023-01-10T12:17:00;7.30;;;1.33;;
1296;SDS011;641;48.492;9.184;2023-01-10T12:19:27;10.33;;;1.00;;
1296;SDS011;641;48.492;9.184;2023-01-10T12:21:54;6.67;;;1.07;;
1296;SDS011;641;48.492;9.184;2023-01-10T12:24:24;6.43;;;1.17;;
1296;SDS011;641;48.492;9.184;2023-01-10T12:26:52;7.10;;;0.80;;
1296;SDS011;641;48.492;9.184;2023-01-10T12:29:23;7.03;;;1.00;;
1296;SDS011;641;48.492;9.184;2023-01-10T12:31:50;7.70;;;1.00;;
1296;SDS011;641;48.492;9.184;2023-01-10T12:34:19;7.93;;;1.20;;
1296;SDS011;641;48.492;9.184;2023-01-10T12:36:57;5.83;;;0.90;;
1296;SDS011;641;48.492;9.184;2023-01-10T12:39:26;8.20;;;1.10;;
1296;SDS011;641;48.492;9.184;2023-01-10T12:45:11;7.50;;;0.70;;
1296;SDS011;641;48.492;9.184;2023-01-10T12:47:53;9.83;;;1.53;;
1296;SDS011;641;48.492;9.184;2023-01-10T12:50:28;8.70;;;1.33;;
1296;SDS011;641;48.492;9.184;2023-01-10T12:52:58;8.77;;;1.57;;
1296;SDS011;641;48.492;9.184;2023-01-10T12:55:25;7.13;;;1.00;;
1296;SDS011;641;48.492;9.184;2023-01-10T12:57:53;7.30;;;0.80;;
1296;SDS011;641;48.492;9.184;2023-01-10T13:00:23;8.73;;;1.20;;
1296;SDS011;641;48.492;9.184;2023-01-10T13:02:53;5.90;;;0.80;;
1296;SDS011;641;48.492;9.184;2023-01-10T13:05:21;11.93;;;1.27;;
1296;SDS011;641;48.492;9.184;2023-01-10T13:07:48;8.50;;;1.17;;
1296;SDS011;641;48.492;9.184;2023-01-10T13:10:15;8.17;;;0.90;;
1296;SDS011;641;48.492;9.184;2023-01-10T13:12:43;10.37;;;1.57;;
1296;SDS011;641;48.492;9.184;2023-01-10T13:15:22;8.13;;;1.00;;
1296;SDS011;641;48.492;9.184;2023-01-10T13:17:58;9.90;;;1.00;;
1296;SDS011;641;48.492;9.184;2023-01-10T13:20:27;9.00;;;1.33;;
1296;SDS011;641;48.492;9.184;2023-01-10T13:22:54;7.90;;;1.30;;
1296;SDS011;641;48.492;9.184;2023-01-10T13:25:25;9.73;;;1.10;;
1296;SDS011;641;48.492;9.184;2023-01-10T13:28:01;7.87;;;1.03;;
1296;SDS011;641;48.492;9.184;2023-01-10T13:30:32;9.37;;;1.60;;
1296;SDS011;641;48.492;9.184;2023-01-10T13:33:05;12.03;;;1.17;;
1296;SDS011;641;48.492;9.184;2023-01-10T13:35:38;7.20;;;0.87;;
1296;SDS011;641;48.492;9.184;2023-01-10T13:38:04;8.80;;;1.30;;
1296;SDS011;641;48.492;9.184;2023-01-10T13:40:34;7.10;;;1.00;;
1296;SDS011;641;48.492;9.184;2023-01-10T13:45:45;9.20;;;1.20;;
1296;SDS011;641;48.492;9.184;2023-01-10T13:48:25;6.70;;;1.10;;
1296;SDS011;641;48.492;9.184;2023-01-10T13:51:04;9.97;;;1.37;;
1296;SDS011;641;48.492;9.184;2023-01-10T13:55:57;6.50;;;1.00;;
1296;SDS011;641;48.492;9.184;2023-01-10T14:04:28;11.33;;;1.10;;
1296;SDS011;641;48.492;9.184;2023-01-10T14:06:59;9.30;;;0.90;;
1296;SDS011;641;48.492;9.184;2023-01-10T14:09:28;7.63;;;1.20;;
1296;SDS011;641;48.492;9.184;2023-01-10T14:11:56;8.97;;;1.50;;
1296;SDS011;641;48.492;9.184;2023-01-10T14:14:25;6.00;;;0.70;;
1296;SDS011;641;48.492;9.184;2023-01-10T14:16:52;9.57;;;1.23;;
1296;SDS011;641;48.492;9.184;2023-01-10T14:19:23;7.27;;;1.20;;
1296;SDS011;641;48.492;9.184;2023-01-10T14:21:52;7.50;;;1.17;;
1296;SDS011;641;48.492;9.184;2023-01-10T14:24:23;12.33;;;1.70;;
1296;SDS011;641;48.492;9.184;2023-01-10T14:26:51;8.52;;;1.40;;
1296;SDS011;641;48.492;9.184;2023-01-10T14:29:18;7.50;;;0.80;;
1296;SDS011;641;48.492;9.184;2023-01-10T14:31:45;7.73;;;1.47;;
1296;SDS011;641;48.492;9.184;2023-01-10T14:34:15;6.60;;;0.80;;
1296;SDS011;641;48.492;9.184;2023-01-10T14:36:47;9.83;;;1.20;;
1296;SDS011;641;48.492;9.184;2023-01-10T14:39:14;5.90;;;0.83;;
1296;SDS011;641;48.492;9.184;2023-01-10T14:41:43;9.17;;;1.13;;
1296;SDS011;641;48.492;9.184;2023-01-10T14:44:21;8.33;;;1.23;;
1296;SDS011;641;48.492;9.184;2023-01-10T14:46:49;7.57;;;0.90;;
1296;SDS011;641;48.492;9.184;2023-01-10T14:49:23;7.50;;;1.17;;
1296;SDS011;641;48.492;9.184;2023-01-10T14:51:50;7.57;;;1.00;;
1296;SDS011;641;48.492;9.184;2023-01-10T14:54:19;6.83;;;0.90;;
1296;SDS011;641;48.492;9.184;2023-01-10T14:56:48;8.10;;;1.30;;
1296;SDS011;641;48.492;9.184;2023-01-10T15:01:47;8.70;;;1.30;;
1296;SDS011;641;48.492;9.184;2023-01-10T15:04:17;8.00;;;1.30;;
1296;SDS011;641;48.492;9.184;2023-01-10T15:09:47;10.37;;;1.10;;
1296;SDS011;641;48.492;9.184;2023-01-10T15:12:13;7.07;;;1.10;;
1296;SDS011;641;48.492;9.184;2023-01-10T15:14:40;6.70;;;0.83;;
1296;SDS011;641;48.492;9.184;2023-01-10T15:17:09;7.53;;;1.33;;
1296;SDS011;641;48.492;9.184;2023-01-10T15:19:37;12.00;;;1.97;;
1296;SDS011;641;48.492;9.184;2023-01-10T15:22:37;6.33;;;1.10;;
1296;SDS011;641;48.492;9.184;2023-01-10T15:24:58;8.20;;;1.07;;
1296;SDS011;641;48.492;9.184;2023-01-10T15:27:24;8.07;;;1.27;;
1296;SDS011;641;48.492;9.184;2023-01-10T15:29:50;7.53;;;1.00;;
1296;SDS011;641;48.492;9.184;2023-01-10T15:32:35;10.73;;;1.60;;
1296;SDS011;641;48.492;9.184;2023-01-10T15:35:03;10.73;;;1.40;;
1296;SDS011;641;48.492;9.184;2023-01-10T15:37:31;9.47;;;1.50;;
1296;SDS011;641;48.492;9.184;2023-01-10T15:40:00;9.70;;;0.80;;
1296;SDS011;641;48.492;9.184;2023-01-10T15:42:26;6.97;;;0.80;;
1296;SDS011;641;48.492;9.184;2023-01-10T15:44:52;9.93;;;1.07;;
1296;SDS011;641;48.492;9.184;2023-01-10T15:50:18;7.80;;;2.00;;
1296;SDS011;641;48.492;9.184;2023-01-10T15:52:52;8.60;;;1.50;;
1296;SDS011;641;48.492;9.184;2023-01-10T15:55:19;7.10;;;1.27;;
1296;SDS011;641;48.492;9.184;2023-01-10T15:57:45;7.90;;;1.10;;
1296;SDS011;641;48.492;9.184;2023-01-10T16:00:15;7.60;;;1.30;;
1296;SDS011;641;48.492;9.184;2023-01-10T16:02:42;9.70;;;1.23;;
1296;SDS011;641;48.492;9.184;2023-01-10T16:05:13;8.40;;;1.90;;
1296;SDS011;641;48.492;9.184;2023-01-10T16:07:42;7.33;;;2.50;;
1296;SDS011;641;48.492;9.184;2023-01-10T16:10:16;6.70;;;1.03;;
1296;SDS011;641;48.492;9.184;2023-01-10T16:12:43;7.67;;;1.40;;
1296;SDS011;641;48.492;9.184;2023-01-10T16:15:31;9.43;;;1.40;;
1296;SDS011;641;48.492;9.184;2023-01-10T16:18:02;9.50;;;1.57;;
1296;SDS011;641;48.492;9.184;2023-01-10T16:20:39;9.17;;;1.33;;
1296;SDS011;641;48.492;9.184;2023-01-10T16:23:05;6.60;;;1.00;;
1296;SDS011;641;48.492;9.184;2023-01-10T16:25:38;7.47;;;1.13;;
1296;SDS011;641;48.492;9.184;2023-01-10T16:28:09;11.30;;;1.20;;
1296;SDS011;641;48.492;9.184;2023-01-10T16:30:36;10.90;;;1.10;;
1296;SDS011;641;48.492;9.184;2023-01-10T16:35:42;7.00;;;1.33;;
1296;SDS011;641;48.492;9.184;2023-01-10T16:38:09;11.20;;;1.83;;
1296;SDS011;641;48.492;9.184;2023-01-10T16:40:36;10.20;;;1.53;;
1296;SDS011;641;48.492;9.184;2023-01-10T16:43:03;11.07;;;1.30;;
1296;SDS011;641;48.492;9.184;2023-01-10T16:45:52;10.83;;;1.70;;
1296;SDS011;641;48.492;9.184;2023-01-10T16:48:23;6.93;;;1.23;;
1296;SDS011;641;48.492;9.184;2023-01-10T16:50:49;8.27;;;1.40;;
1296;SDS011;641;48.492;9.184;2023-01-10T16:53:16;10.67;;;2.27;;
1296;SDS011;641;48.492;9.184;2023-01-10T16:55:43;9.83;;;1.40;;
1296;SDS011;641;48.492;9.184;2023-01-10T16:58:10;9.50;;;1.20;;
1296;SDS011;641;48.492;9.184;2023-01-10T17:00:37;8.07;;;1.17;;
1296;SDS011;641;48.492;9.184;2023-01-10T17:03:04;9.73;;;1.30;;